TimeMST,TemperatureF,Dew PointF,Humidity,Sea Level PressureIn,VisibilityMPH,Wind Direction,Wind SpeedMPH,Gust SpeedMPH,PrecipitationIn,Events,Conditions,WindDirDegrees,DateUTC
12:53 AM,25.0,14.0,63,29.68,10.0,WSW,9.2,-,N/A,,Overcast,250,2012-12-15 07:53:00
1:53 AM,34.0,17.1,50,29.65,10.0,SW,13.8,-,N/A,,Overcast,220,2012-12-15 08:53:00
2:53 AM,33.1,23.0,66,29.68,4.0,WSW,10.4,-,0.00,Snow,Light Snow,240,2012-12-15 09:53:00
3:35 AM,30.2,26.6,86,29.68,2.0,SW,6.9,-,0.00,Snow,Light Snow,220,2012-12-15 10:35:00
3:44 AM,30.2,26.6,86,29.68,2.0,SW,6.9,-,0.00,Snow,Light Snow,230,2012-12-15 10:44:00
3:53 AM,30.9,27.0,85,29.70,2.5,SW,4.6,-,0.00,Snow,Light Snow,220,2012-12-15 10:53:00
4:02 AM,30.2,26.6,86,29.67,3.0,Calm,Calm,-,0.01,Snow,Light Snow,0,2012-12-15 11:02:00
4:53 AM,30.0,25.0,82,29.72,6.0,NNW,4.6,-,0.01,Snow,Light Snow,330,2012-12-15 11:53:00
5:32 AM,26.6,24.8,93,29.68,4.0,NNW,6.9,-,0.00,Snow,Light Snow,340,2012-12-15 12:32:00
5:53 AM,27.0,25.0,92,29.77,10.0,NNW,8.1,-,0.00,,Overcast,340,2012-12-15 12:53:00
6:49 AM,28.4,24.8,86,29.71,10.0,NNW,4.6,-,N/A,,Overcast,330,2012-12-15 13:49:00
6:53 AM,28.4,24.8,86,29.71,10.0,NNW,3.5,-,N/A,,Overcast,330,2012-12-15 13:53:00
7:53 AM,28.0,24.1,85,29.82,7.0,North,4.6,-,N/A,,Overcast,360,2012-12-15 14:53:00
8:53 AM,28.9,24.1,82,29.83,5.0,Calm,Calm,-,N/A,,Haze,0,2012-12-15 15:53:00
9:29 AM,28.4,24.8,86,29.75,7.0,Calm,Calm,-,N/A,,Overcast,0,2012-12-15 16:29:00
9:53 AM,28.9,24.1,82,29.85,8.0,Calm,Calm,-,N/A,,Overcast,0,2012-12-15 16:53:00
10:53 AM,28.9,24.1,82,29.84,10.0,ENE,4.6,-,N/A,,Overcast,60,2012-12-15 17:53:00
11:18 AM,30.2,24.8,80,29.74,10.0,Calm,Calm,-,N/A,,Overcast,0,2012-12-15 18:18:00
11:53 AM,30.0,25.0,82,29.79,10.0,Calm,Calm,-,N/A,,Overcast,0,2012-12-15 18:53:00
11:55 AM,30.2,24.8,80,29.72,9.0,Calm,Calm,-,N/A,,Overcast,0,2012-12-15 18:55:00
12:41 PM,30.2,24.8,80,29.70,10.0,Calm,Calm,-,0.00,,Overcast,0,2012-12-15 19:41:00
12:53 PM,30.9,24.1,76,29.77,10.0,North,3.5,-,0.00,,Overcast,360,2012-12-15 19:53:00
1:53 PM,33.1,25.0,72,29.72,10.0,Calm,Calm,-,N/A,,Mostly Cloudy,0,2012-12-15 20:53:00
2:53 PM,32.0,23.0,69,29.72,10.0,Calm,Calm,-,N/A,,Partly Cloudy,0,2012-12-15 21:53:00
3:53 PM,30.9,23.0,72,29.73,10.0,ENE,3.5,-,N/A,,Mostly Cloudy,60,2012-12-15 22:53:00
4:53 PM,28.9,21.9,75,29.73,10.0,ESE,4.6,-,N/A,,Overcast,110,2012-12-15 23:53:00
5:53 PM,28.0,21.9,78,29.74,10.0,SE,4.6,-,N/A,,Overcast,130,2012-12-16 00:53:00
6:53 PM,27.0,21.9,81,29.73,10.0,Calm,Calm,-,N/A,,Overcast,0,2012-12-16 01:53:00
7:53 PM,23.0,19.0,85,29.73,10.0,Calm,Calm,-,N/A,,Mostly Cloudy,0,2012-12-16 02:53:00
8:53 PM,24.1,19.9,84,29.72,10.0,East,3.5,-,N/A,,Clear,90,2012-12-16 03:53:00
9:53 PM,21.0,17.1,85,29.73,10.0,West,3.5,-,N/A,,Clear,270,2012-12-16 04:53:00
10:53 PM,21.0,17.1,85,29.73,10.0,Calm,Calm,-,N/A,,Clear,0,2012-12-16 05:53:00
11:53 PM,23.0,18.0,81,29.71,10.0,South,8.1,-,N/A,,Clear,190,2012-12-16 06:53:00